Time;durP1;ratioP1;P1;durP2;ratioP2;P2;SDS_P1;SDS_P2;PMS_P1;PMS_P2;Temp;Humidity;BMP_temperature;BMP_pressure;BME280_temperature;BME280_humidity;BME280_pressure;Samples;Min_cycle;Max_cycle;Signal;HPM_P1;HPM_P2
2022/10/16 00:01:51;;;;;;;;;;;15.40;99.90;;;;;;4953133;28;19914;-77
2022/10/16 00:04:16;;;;;;;;;;;15.50;99.90;;;;;;4953988;28;19941;-77
2022/10/16 00:06:42;;;;;;;;;;;15.50;99.90;;;;;;4956334;28;19952;-77
2022/10/16 00:09:07;;;;;;;;;;;15.60;99.90;;;;;;4950937;28;20009;-77
2022/10/16 00:11:36;;;;;;;;;;;15.60;99.90;;;;;;4954537;28;19914;-77
2022/10/16 00:14:02;;;;;;;;;;;15.70;99.90;;;;;;4953632;28;20004;-77
2022/10/16 00:16:28;;;;;;;;;;;15.70;99.90;;;;;;4953474;28;19938;-77
2022/10/16 00:18:54;;;;;;;;;;;15.70;99.90;;;;;;4955906;28;20424;-77
2022/10/16 00:21:20;;;;;;;;;;;15.70;99.90;;;;;;4953249;28;20289;-77
2022/10/16 00:23:46;;;;;;;;;;;15.60;99.90;;;;;;4953697;28;19918;-77
2022/10/16 00:26:13;;;;;;;;;;;15.60;99.90;;;;;;4956347;28;20376;-77
2022/10/16 00:28:39;;;;;;;;;;;15.60;99.90;;;;;;4953227;28;19914;-76
2022/10/16 00:31:10;;;;;;;;;;;15.70;99.90;;;;;;4947042;28;20425;-76
2022/10/16 00:33:37;;;;;;;;;;;15.70;99.90;;;;;;4956703;28;19993;-76
2022/10/16 00:36:03;;;;;;;;;;;15.70;99.90;;;;;;4954894;28;19910;-77
2022/10/16 00:38:29;;;;;;;;;;;15.70;99.90;;;;;;4952993;28;20428;-78
2022/10/16 00:40:54;;;;;;;;;;;15.60;99.90;;;;;;4948223;28;19914;-76
2022/10/16 00:43:40;;;;;;;;;;;15.60;99.90;;;;;;4949637;28;19922;-76
2022/10/16 00:46:10;;;;;;;;;;;15.60;99.90;;;;;;4953868;28;19910;-77
2022/10/16 00:48:36;;;;;;;;;;;15.60;99.90;;;;;;4952900;28;19952;-77
2022/10/16 00:51:01;;;;;;;;;;;15.60;99.90;;;;;;4959561;28;20338;-76
2022/10/16 00:53:27;;;;;;;;;;;15.60;99.90;;;;;;4952091;28;19910;-77
2022/10/16 00:55:52;;;;;;;;;;;15.50;99.90;;;;;;4951108;28;19918;-77
2022/10/16 00:58:18;;;;;;;;;;;15.50;99.90;;;;;;4956397;28;19910;-78
2022/10/16 01:00:43;;;;;;;;;;;15.60;99.90;;;;;;4954636;28;19992;-77
2022/10/16 01:03:24;;;;;;;;;;;15.60;99.90;;;;;;4958381;28;19918;-76
2022/10/16 01:05:56;;;;;;;;;;;15.60;99.90;;;;;;4953262;28;19977;-79
2022/10/16 01:08:25;;;;;;;;;;;15.60;99.90;;;;;;4948069;28;19918;-77
2022/10/16 01:10:54;;;;;;;;;;;15.60;99.90;;;;;;4951021;28;19925;-77
2022/10/16 01:13:37;;;;;;;;;;;15.60;99.90;;;;;;4946794;28;20028;-76
2022/10/16 01:16:10;;;;;;;;;;;15.50;99.90;;;;;;4952036;28;20000;-76
2022/10/16 01:18:47;;;;;;;;;;;15.50;99.90;;;;;;4955336;28;20016;-77
2022/10/16 01:21:19;;;;;;;;;;;15.60;99.90;;;;;;4955058;28;20321;-76
2022/10/16 01:23:53;;;;;;;;;;;15.60;99.90;;;;;;4955723;28;20017;-76
2022/10/16 01:26:37;;;;;;;;;;;15.60;99.90;;;;;;4958424;28;19942;-78
2022/10/16 01:29:08;;;;;;;;;;;15.60;99.90;;;;;;4955217;28;19994;-76
2022/10/16 01:31:36;;;;;;;;;;;15.60;99.90;;;;;;4956870;28;19980;-77
2022/10/16 01:34:12;;;;;;;;;;;15.70;99.90;;;;;;4958385;28;19928;-77
2022/10/16 01:36:40;;;;;;;;;;;15.60;99.90;;;;;;4958719;28;20259;-77
2022/10/16 01:39:08;;;;;;;;;;;15.60;99.90;;;;;;4957355;28;19973;-77
2022/10/16 01:41:37;;;;;;;;;;;15.60;99.90;;;;;;4953874;28;20407;-77
2022/10/16 01:44:06;;;;;;;;;;;15.70;99.90;;;;;;4951613;28;20175;-77
2022/10/16 01:46:32;;;;;;;;;;;15.60;99.90;;;;;;4960205;28;19993;-77
2022/10/16 01:49:00;;;;;;;;;;;15.70;99.90;;;;;;4955919;28;19914;-76
2022/10/16 01:51:26;;;;;;;;;;;15.60;99.90;;;;;;4953799;28;19910;-77
2022/10/16 01:53:53;;;;;;;;;;;15.60;99.90;;;;;;4956470;28;19934;-77
2022/10/16 01:56:22;;;;;;;;;;;15.50;99.90;;;;;;4956413;28;19910;-76
2022/10/16 01:58:50;;;;;;;;;;;15.60;99.90;;;;;;4951474;28;20393;-77
2022/10/16 02:01:17;;;;;;;;;;;15.50;99.90;;;;;;4955621;28;19906;-76
2022/10/16 02:03:44;;;;;;;;;;;15.60;99.90;;;;;;4954971;28;20499;-76
2022/10/16 02:06:10;;;;;;;;;;;15.60;99.90;;;;;;4952446;28;20575;-76
2022/10/16 02:08:35;;;;;;;;;;;15.60;99.90;;;;;;4956642;28;19910;-77
2022/10/16 02:11:01;;;;;;;;;;;15.60;99.90;;;;;;4959109;28;20297;-77
2022/10/16 02:13:33;;;;;;;;;;;15.60;99.90;;;;;;4955778;28;19925;-78
2022/10/16 02:15:58;;;;;;;;;;;15.60;99.90;;;;;;4954613;28;19911;-77
2022/10/16 02:18:28;;;;;;;;;;;15.60;99.90;;;;;;4953631;28;19918;-78
2022/10/16 02:20:54;;;;;;;;;;;15.60;99.90;;;;;;4959405;28;20378;-77
2022/10/16 02:23:26;;;;;;;;;;;15.60;99.90;;;;;;4957085;28;20165;-77
2022/10/16 02:25:52;;;;;;;;;;;15.60;99.90;;;;;;4954877;28;20314;-77
2022/10/16 02:28:22;;;;;;;;;;;15.50;99.90;;;;;;4954679;28;20052;-77
2022/10/16 02:30:53;;;;;;;;;;;15.60;99.90;;;;;;4961792;28;19924;-77
2022/10/16 02:33:19;;;;;;;;;;;15.60;99.90;;;;;;4953816;28;19933;-76
2022/10/16 02:35:46;;;;;;;;;;;15.60;99.90;;;;;;4950564;28;19918;-77
2022/10/16 02:38:12;;;;;;;;;;;15.60;99.90;;;;;;4957676;28;19914;-76
2022/10/16 02:40:38;;;;;;;;;;;15.60;99.90;;;;;;4955992;28;20048;-77
2022/10/16 02:43:04;;;;;;;;;;;15.60;99.90;;;;;;4962387;28;20205;-77
2022/10/16 02:45:30;;;;;;;;;;;15.60;99.90;;;;;;4965488;28;19925;-77
2022/10/16 02:47:55;;;;;;;;;;;15.60;99.90;;;;;;4968024;28;19913;-76
2022/10/16 02:50:21;;;;;;;;;;;15.50;99.90;;;;;;4964605;28;19919;-77
2022/10/16 02:52:46;;;;;;;;;;;15.50;99.90;;;;;;4957871;28;19913;-76
2022/10/16 02:55:11;;;;;;;;;;;15.60;99.90;;;;;;4953207;28;19910;-77
2022/10/16 02:57:38;;;;;;;;;;;15.50;99.90;;;;;;4955148;28;19953;-76
2022/10/16 03:00:04;;;;;;;;;;;15.40;99.90;;;;;;4955992;28;19917;-77
2022/10/16 03:02:30;;;;;;;;;;;15.50;99.90;;;;;;4953841;28;20483;-77
2022/10/16 03:04:55;;;;;;;;;;;15.50;99.90;;;;;;4955568;28;19930;-77
2022/10/16 03:07:21;;;;;;;;;;;15.40;99.90;;;;;;4953194;28;19926;-76
2022/10/16 03:09:46;;;;;;;;;;;15.30;99.90;;;;;;4958002;28;19918;-77
2022/10/16 03:12:11;;;;;;;;;;;15.20;99.90;;;;;;4954020;28;20005;-77
2022/10/16 03:14:37;;;;;;;;;;;15.10;99.90;;;;;;4954597;28;20301;-77
2022/10/16 03:17:02;;;;;;;;;;;15.10;99.90;;;;;;4951331;28;19918;-77
2022/10/16 03:19:28;;;;;;;;;;;15.00;99.90;;;;;;4956097;28;19925;-76
2022/10/16 03:21:53;;;;;;;;;;;14.90;99.90;;;;;;4955093;28;19914;-77
2022/10/16 03:24:18;;;;;;;;;;;14.80;99.90;;;;;;4952276;28;19914;-77
2022/10/16 03:26:44;;;;;;;;;;;14.60;99.90;;;;;;4955351;28;20353;-77
2022/10/16 03:29:09;;;;;;;;;;;14.50;99.90;;;;;;4952182;28;19914;-77
2022/10/16 03:31:35;;;;;;;;;;;14.40;99.90;;;;;;4961222;28;19918;-77
2022/10/16 03:34:00;;;;;;;;;;;14.40;99.90;;;;;;4951056;28;19914;-76
2022/10/16 03:36:25;;;;;;;;;;;14.20;99.90;;;;;;4955191;28;20428;-77
2022/10/16 03:38:51;;;;;;;;;;;14.20;99.90;;;;;;4953921;28;20297;-77
2022/10/16 03:41:16;;;;;;;;;;;14.20;99.90;;;;;;4952505;28;19968;-76
2022/10/16 03:43:42;;;;;;;;;;;14.10;99.90;;;;;;4950138;28;20625;-76
2022/10/16 03:46:07;;;;;;;;;;;14.00;99.90;;;;;;4947792;28;19981;-76
2022/10/16 03:48:33;;;;;;;;;;;13.90;99.90;;;;;;4953197;28;19957;-76
2022/10/16 03:50:58;;;;;;;;;;;13.80;99.90;;;;;;4957092;28;20029;-77
2022/10/16 03:53:24;;;;;;;;;;;13.90;99.90;;;;;;4952404;28;19916;-77
2022/10/16 03:55:49;;;;;;;;;;;13.90;99.90;;;;;;4959425;28;19934;-77
2022/10/16 03:58:15;;;;;;;;;;;14.00;99.90;;;;;;4955993;28;19938;-77
2022/10/16 04:00:44;;;;;;;;;;;14.10;99.90;;;;;;4953872;28;19917;-77
2022/10/16 04:03:10;;;;;;;;;;;14.10;99.90;;;;;;4952507;28;20008;-77
2022/10/16 04:05:35;;;;;;;;;;;14.20;99.90;;;;;;4954300;28;19982;-76
2022/10/16 04:08:01;;;;;;;;;;;14.20;99.90;;;;;;4960513;28;19921;-77
2022/10/16 04:10:26;;;;;;;;;;;14.20;99.90;;;;;;4951050;28;19911;-76
2022/10/16 04:12:54;;;;;;;;;;;14.30;99.90;;;;;;4954155;28;19917;-77
2022/10/16 04:15:19;;;;;;;;;;;14.30;99.90;;;;;;4951122;28;19997;-76
2022/10/16 04:17:45;;;;;;;;;;;14.20;99.90;;;;;;4956443;28;20190;-76
2022/10/16 04:20:10;;;;;;;;;;;14.20;99.90;;;;;;4952948;28;19918;-77
2022/10/16 04:22:36;;;;;;;;;;;14.10;99.90;;;;;;4956771;28;19918;-77
2022/10/16 04:25:01;;;;;;;;;;;14.10;99.90;;;;;;4953230;28;19937;-77
2022/10/16 04:27:28;;;;;;;;;;;14.20;99.90;;;;;;4952968;28;19910;-77
2022/10/16 04:29:53;;;;;;;;;;;14.10;99.90;;;;;;4961616;28;19932;-77
2022/10/16 04:32:19;;;;;;;;;;;14.20;99.90;;;;;;4960562;28;19910;-76
2022/10/16 04:34:44;;;;;;;;;;;14.20;99.90;;;;;;4952437;28;20276;-77
2022/10/16 04:37:09;;;;;;;;;;;14.30;99.90;;;;;;4957849;28;20531;-76
2022/10/16 04:39:35;;;;;;;;;;;14.20;99.90;;;;;;4949281;28;19913;-77
2022/10/16 04:42:00;;;;;;;;;;;14.10;99.90;;;;;;4955522;28;19916;-76
2022/10/16 04:44:26;;;;;;;;;;;14.10;99.90;;;;;;4953501;28;19914;-76
2022/10/16 04:46:51;;;;;;;;;;;14.10;99.90;;;;;;4954329;28;19997;-77
2022/10/16 04:49:16;;;;;;;;;;;14.00;99.90;;;;;;4950721;28;19911;-76
2022/10/16 04:51:42;;;;;;;;;;;13.80;99.90;;;;;;4956168;28;20296;-76
2022/10/16 04:54:08;;;;;;;;;;;13.80;99.90;;;;;;4951858;28;19919;-77
2022/10/16 04:56:39;;;;;;;;;;;13.70;99.90;;;;;;4955418;28;19914;-76
2022/10/16 04:59:05;;;;;;;;;;;13.70;99.90;;;;;;4958220;28;19917;-77
2022/10/16 05:01:30;;;;;;;;;;;13.70;99.90;;;;;;4964434;28;19910;-77
2022/10/16 05:03:56;;;;;;;;;;;13.70;99.90;;;;;;4955250;28;20557;-77
2022/10/16 05:06:21;;;;;;;;;;;13.60;99.90;;;;;;4960890;28;19918;-77
2022/10/16 05:08:46;;;;;;;;;;;13.60;99.90;;;;;;4954336;28;19922;-76
2022/10/16 05:11:12;;;;;;;;;;;13.50;99.90;;;;;;4958807;28;19954;-77
2022/10/16 05:13:37;;;;;;;;;;;13.40;99.90;;;;;;4954885;28;20285;-77
2022/10/16 05:16:03;;;;;;;;;;;13.40;99.90;;;;;;4957125;28;19910;-77
2022/10/16 05:18:28;;;;;;;;;;;13.40;99.90;;;;;;4950110;28;19914;-77
2022/10/16 05:20:54;;;;;;;;;;;13.40;99.90;;;;;;4960123;28;19910;-76
2022/10/16 05:23:19;;;;;;;;;;;13.40;99.90;;;;;;4955968;28;19914;-77
2022/10/16 05:25:51;;;;;;;;;;;13.40;99.90;;;;;;4953125;28;20369;-76
2022/10/16 05:28:16;;;;;;;;;;;13.40;99.90;;;;;;4956329;28;20078;-76
2022/10/16 05:30:42;;;;;;;;;;;13.50;99.90;;;;;;4954230;28;20628;-77
2022/10/16 05:33:07;;;;;;;;;;;13.50;99.90;;;;;;4961544;28;19917;-77
2022/10/16 05:35:33;;;;;;;;;;;13.60;99.90;;;;;;4958583;28;19929;-77
2022/10/16 05:37:59;;;;;;;;;;;13.50;99.90;;;;;;4956264;28;19914;-77
2022/10/16 05:40:24;;;;;;;;;;;13.70;99.90;;;;;;4957477;28;20259;-76
2022/10/16 05:42:54;;;;;;;;;;;13.80;99.90;;;;;;4955013;28;20270;-76
2022/10/16 05:45:19;;;;;;;;;;;13.90;99.90;;;;;;4961405;28;19921;-76
2022/10/16 05:47:44;;;;;;;;;;;14.00;99.90;;;;;;4959867;28;19918;-76
2022/10/16 05:50:10;;;;;;;;;;;14.10;99.90;;;;;;4959283;28;20027;-77
2022/10/16 05:52:35;;;;;;;;;;;14.10;99.90;;;;;;4954401;28;19925;-76
2022/10/16 05:55:01;;;;;;;;;;;14.10;99.90;;;;;;4964692;28;19909;-77
2022/10/16 05:57:26;;;;;;;;;;;14.20;99.90;;;;;;4951352;28;19921;-76
2022/10/16 05:59:51;;;;;;;;;;;14.30;99.90;;;;;;4960187;28;19910;-76
2022/10/16 06:02:17;;;;;;;;;;;14.30;99.90;;;;;;4958475;28;19910;-76
2022/10/16 06:04:42;;;;;;;;;;;14.40;99.90;;;;;;4958749;28;19918;-76
2022/10/16 06:07:08;;;;;;;;;;;14.40;99.90;;;;;;4961112;28;20385;-77
2022/10/16 06:09:33;;;;;;;;;;;14.40;99.90;;;;;;4964894;28;20003;-77
2022/10/16 06:11:58;;;;;;;;;;;14.40;99.90;;;;;;4952140;28;19921;-77
2022/10/16 06:14:24;;;;;;;;;;;14.50;99.90;;;;;;4957476;28;19965;-76
2022/10/16 06:16:49;;;;;;;;;;;14.70;99.90;;;;;;4958212;28;19918;-76
2022/10/16 06:19:16;;;;;;;;;;;14.80;99.90;;;;;;4959133;28;19917;-76
2022/10/16 06:21:41;;;;;;;;;;;14.90;99.90;;;;;;4959129;28;20388;-76
2022/10/16 06:24:07;;;;;;;;;;;15.00;99.90;;;;;;4956836;28;20073;-76
2022/10/16 06:26:32;;;;;;;;;;;15.10;99.90;;;;;;4951697;28;19960;-76
2022/10/16 06:28:58;;;;;;;;;;;15.10;99.90;;;;;;4963010;28;19914;-76
2022/10/16 06:31:27;;;;;;;;;;;15.30;99.90;;;;;;4954819;28;19985;-76
2022/10/16 06:33:53;;;;;;;;;;;15.30;99.90;;;;;;4954350;28;20791;-74
2022/10/16 06:36:18;;;;;;;;;;;15.30;99.90;;;;;;4953343;28;19910;-76
2022/10/16 06:38:44;;;;;;;;;;;15.40;99.90;;;;;;4959922;28;19950;-76
2022/10/16 06:41:14;;;;;;;;;;;15.40;99.90;;;;;;4958476;28;20988;-76
2022/10/16 06:43:40;;;;;;;;;;;15.50;99.90;;;;;;4959093;28;19918;-76
2022/10/16 06:46:07;;;;;;;;;;;15.50;99.90;;;;;;4959349;28;19938;-76
2022/10/16 06:48:33;;;;;;;;;;;15.60;99.90;;;;;;4957734;28;19914;-77
2022/10/16 06:50:59;;;;;;;;;;;15.60;99.90;;;;;;4957578;28;20332;-76
2022/10/16 06:53:25;;;;;;;;;;;15.80;99.90;;;;;;4958005;28;19910;-76
2022/10/16 06:55:51;;;;;;;;;;;15.90;99.90;;;;;;4952500;28;20063;-76
2022/10/16 06:58:16;;;;;;;;;;;16.10;99.90;;;;;;4960882;28;20006;-76
2022/10/16 07:00:42;;;;;;;;;;;16.20;99.90;;;;;;4959521;28;19914;-76
2022/10/16 07:03:07;;;;;;;;;;;16.30;99.90;;;;;;4956703;28;19925;-76
2022/10/16 07:05:37;;;;;;;;;;;16.40;99.90;;;;;;4957830;28;19922;-76
2022/10/16 07:08:04;;;;;;;;;;;16.40;99.90;;;;;;4958646;28;19914;-79
2022/10/16 07:10:30;;;;;;;;;;;16.40;99.90;;;;;;4959937;28;20496;-79
2022/10/16 07:12:55;;;;;;;;;;;16.60;99.90;;;;;;4958374;28;19910;-77
2022/10/16 07:15:21;;;;;;;;;;;16.70;99.90;;;;;;4958995;28;19910;-77
2022/10/16 07:17:46;;;;;;;;;;;16.70;99.90;;;;;;4959450;28;19910;-78
2022/10/16 07:20:11;;;;;;;;;;;16.80;99.90;;;;;;4958005;28;19921;-78
2022/10/16 07:22:37;;;;;;;;;;;17.00;99.90;;;;;;4956582;28;20329;-78
2022/10/16 07:25:02;;;;;;;;;;;16.90;99.90;;;;;;4955882;28;19960;-78
2022/10/16 07:27:28;;;;;;;;;;;16.80;99.90;;;;;;4956744;28;20001;-79
2022/10/16 07:29:53;;;;;;;;;;;16.80;99.90;;;;;;4953681;28;20304;-79
2022/10/16 07:32:18;;;;;;;;;;;17.00;99.90;;;;;;4956638;28;20048;-75
2022/10/16 07:34:45;;;;;;;;;;;17.00;99.90;;;;;;4958603;28;19922;-78
2022/10/16 07:37:11;;;;;;;;;;;16.80;99.90;;;;;;4956837;28;19920;-83
2022/10/16 07:39:36;;;;;;;;;;;16.80;99.90;;;;;;4958435;28;21409;-74
2022/10/16 07:42:02;;;;;;;;;;;16.90;99.90;;;;;;4957808;28;19918;-76
2022/10/16 07:44:27;;;;;;;;;;;16.90;99.90;;;;;;4958797;28;20441;-77
2022/10/16 07:46:52;;;;;;;;;;;17.00;99.90;;;;;;4954487;28;19918;-77
2022/10/16 07:49:18;;;;;;;;;;;16.90;99.90;;;;;;4953039;28;20278;-77
2022/10/16 07:51:43;;;;;;;;;;;16.90;99.90;;;;;;4951058;28;19950;-76
2022/10/16 07:54:09;;;;;;;;;;;16.90;99.90;;;;;;4952496;28;19929;-76
2022/10/16 07:56:35;;;;;;;;;;;17.00;99.90;;;;;;4953339;28;19917;-77
2022/10/16 07:59:00;;;;;;;;;;;17.00;99.90;;;;;;4951299;28;19915;-76
2022/10/16 08:01:26;;;;;;;;;;;16.90;99.90;;;;;;4950932;28;19924;-75
2022/10/16 08:03:52;;;;;;;;;;;16.80;99.90;;;;;;4955137;28;20381;-76
2022/10/16 08:06:18;;;;;;;;;;;17.00;99.90;;;;;;4952908;28;20004;-77
2022/10/16 08:08:43;;;;;;;;;;;17.00;99.90;;;;;;4955337;28;19925;-77
2022/10/16 08:11:09;;;;;;;;;;;17.00;99.90;;;;;;4950159;28;19918;-77
2022/10/16 08:13:35;;;;;;;;;;;17.10;99.90;;;;;;4957683;28;19910;-77
2022/10/16 08:16:00;;;;;;;;;;;17.00;99.90;;;;;;4950058;28;19910;-76
2022/10/16 08:18:25;;;;;;;;;;;17.10;99.90;;;;;;4948893;28;19910;-76
2022/10/16 08:20:58;;;;;;;;;;;17.20;99.90;;;;;;4951387;28;19929;-78
2022/10/16 08:23:25;;;;;;;;;;;17.30;99.90;;;;;;4955366;28;20397;-76
2022/10/16 08:25:51;;;;;;;;;;;17.30;99.90;;;;;;4950954;28;20377;-77
2022/10/16 08:28:16;;;;;;;;;;;17.40;99.90;;;;;;4951927;28;19914;-77
2022/10/16 08:30:42;;;;;;;;;;;17.40;99.90;;;;;;4957279;28;19926;-77
2022/10/16 08:33:07;;;;;;;;;;;17.40;99.90;;;;;;4951854;28;20902;-76
2022/10/16 08:35:33;;;;;;;;;;;17.40;99.90;;;;;;4955201;28;19917;-75
2022/10/16 08:37:58;;;;;;;;;;;17.20;99.90;;;;;;4956024;28;19948;-75
2022/10/16 08:40:32;;;;;;;;;;;17.30;99.90;;;;;;4952526;28;20376;-76
2022/10/16 08:43:16;;;;;;;;;;;17.40;99.90;;;;;;4957320;28;20388;-75
2022/10/16 08:45:52;;;;;;;;;;;17.50;99.90;;;;;;4958807;28;19964;-75
2022/10/16 08:48:22;;;;;;;;;;;17.60;99.90;;;;;;4960078;28;19918;-76
2022/10/16 08:50:49;;;;;;;;;;;17.60;99.90;;;;;;4956547;28;19910;-76
2022/10/16 08:53:17;;;;;;;;;;;17.70;99.90;;;;;;4953658;28;20428;-76
2022/10/16 08:55:45;;;;;;;;;;;17.80;99.90;;;;;;4957925;28;19914;-79
2022/10/16 08:58:14;;;;;;;;;;;18.10;99.90;;;;;;4960555;28;25634;-77
2022/10/16 09:00:41;;;;;;;;;;;18.10;99.90;;;;;;4962111;28;20053;-79
2022/10/16 09:03:06;;;;;;;;;;;18.20;99.90;;;;;;4960960;28;19910;-76
2022/10/16 09:05:47;;;;;;;;;;;18.50;99.90;;;;;;4960018;28;19929;-78
2022/10/16 09:08:19;;;;;;;;;;;18.70;99.90;;;;;;4968380;28;19999;-77
2022/10/16 09:11:00;;;;;;;;;;;18.80;99.90;;;;;;4970930;28;19980;-77
2022/10/16 09:13:44;;;;;;;;;;;18.70;99.90;;;;;;4965303;28;19997;-79
2022/10/16 09:16:13;;;;;;;;;;;18.70;99.90;;;;;;4954216;28;20596;-76
2022/10/16 09:18:53;;;;;;;;;;;18.60;99.90;;;;;;4954027;28;20001;-78
2022/10/16 09:21:21;;;;;;;;;;;18.60;99.90;;;;;;4956755;28;19918;-77
2022/10/16 09:23:46;;;;;;;;;;;18.80;99.90;;;;;;4957434;28;19961;-74
2022/10/16 09:26:13;;;;;;;;;;;19.00;99.90;;;;;;4955028;28;19918;-74
2022/10/16 09:28:38;;;;;;;;;;;18.80;99.90;;;;;;4958262;28;20112;-74
2022/10/16 09:31:04;;;;;;;;;;;18.60;99.90;;;;;;4959069;28;20841;-74
2022/10/16 09:33:33;;;;;;;;;;;18.60;99.90;;;;;;4960713;28;20005;-76
2022/10/16 09:35:59;;;;;;;;;;;18.80;99.90;;;;;;4959586;28;20357;-74
2022/10/16 09:38:25;;;;;;;;;;;18.70;99.90;;;;;;4962797;28;19918;-77
2022/10/16 09:40:52;;;;;;;;;;;18.70;99.90;;;;;;4956632;28;19964;-74
2022/10/16 09:43:36;;;;;;;;;;;18.60;99.90;;;;;;4951685;28;20384;-74
2022/10/16 09:46:02;;;;;;;;;;;18.70;99.90;;;;;;4953465;28;19920;-74
2022/10/16 09:48:32;;;;;;;;;;;18.70;99.90;;;;;;4956844;28;19917;-73
2022/10/16 09:50:58;;;;;;;;;;;18.70;99.90;;;;;;4962363;28;19921;-74
2022/10/16 09:53:25;;;;;;;;;;;18.60;99.90;;;;;;4958147;28;19917;-74
2022/10/16 09:55:52;;;;;;;;;;;18.70;99.90;;;;;;4964005;28;19918;-74
2022/10/16 09:58:17;;;;;;;;;;;19.20;99.90;;;;;;4957396;28;19969;-73
2022/10/16 10:00:49;;;;;;;;;;;19.20;99.90;;;;;;4958255;28;20350;-72
2022/10/16 10:03:30;;;;;;;;;;;19.40;99.90;;;;;;4960449;28;19936;-74
2022/10/16 10:05:56;;;;;;;;;;;19.70;99.90;;;;;;4958461;28;19925;-74
2022/10/16 10:08:21;;;;;;;;;;;20.20;99.90;;;;;;4957817;28;19917;-78
2022/10/16 10:10:48;;;;;;;;;;;20.20;99.90;;;;;;4957246;28;20024;-73
2022/10/16 10:13:20;;;;;;;;;;;20.00;99.90;;;;;;4952359;28;19913;-77
2022/10/16 10:15:46;;;;;;;;;;;19.80;99.90;;;;;;4956034;28;19910;-74
2022/10/16 10:18:16;;;;;;;;;;;19.50;99.90;;;;;;4962969;28;19917;-74
2022/10/16 10:20:41;;;;;;;;;;;19.40;99.90;;;;;;4958241;28;19920;-74
2022/10/16 10:23:21;;;;;;;;;;;19.40;99.90;;;;;;4959993;28;19993;-74
2022/10/16 10:25:56;;;;;;;;;;;19.40;99.90;;;;;;4957231;28;19917;-74
2022/10/16 10:28:29;;;;;;;;;;;19.30;99.90;;;;;;4960038;28;19918;-75
2022/10/16 10:30:54;;;;;;;;;;;19.40;99.90;;;;;;4952576;28;20087;-73
2022/10/16 10:33:26;;;;;;;;;;;19.50;99.90;;;;;;4957835;28;20385;-74
2022/10/16 10:35:58;;;;;;;;;;;19.40;99.90;;;;;;4948923;28;19913;-74
2022/10/16 10:38:30;;;;;;;;;;;19.40;99.90;;;;;;4957037;28;20440;-74
2022/10/16 10:41:06;;;;;;;;;;;19.70;99.90;;;;;;4963648;28;20254;-73
2022/10/16 10:43:37;;;;;;;;;;;20.20;99.90;;;;;;4947471;28;19918;-75
2022/10/16 10:46:03;;;;;;;;;;;20.30;99.90;;;;;;4958977;28;19933;-74
2022/10/16 10:48:48;;;;;;;;;;;20.10;99.90;;;;;;4956464;28;19988;-74
2022/10/16 10:51:27;;;;;;;;;;;20.60;99.90;;;;;;4953897;28;19910;-74
2022/10/16 10:54:07;;;;;;;;;;;22.20;99.90;;;;;;4955119;28;20337;-74
2022/10/16 10:56:42;;;;;;;;;;;26.00;89.40;;;;;;4954431;28;19914;-74
2022/10/16 10:59:13;;;;;;;;;;;26.30;78.60;;;;;;4954664;28;19910;-73
2022/10/16 11:01:44;;;;;;;;;;;25.60;78.60;;;;;;4955473;28;20022;-74
2022/10/16 11:04:20;;;;;;;;;;;26.30;74.90;;;;;;4953784;28;19929;-72
2022/10/16 11:06:51;;;;;;;;;;;25.40;76.90;;;;;;4956295;28;20000;-74
2022/10/16 11:09:27;;;;;;;;;;;23.10;87.70;;;;;;4951920;28;19910;-73
2022/10/16 11:12:00;;;;;;;;;;;22.10;91.40;;;;;;4953656;28;19910;-73
2022/10/16 11:14:29;;;;;;;;;;;21.60;93.50;;;;;;4961224;28;19941;-74
2022/10/16 11:16:57;;;;;;;;;;;22.00;93.20;;;;;;4950085;28;20361;-72
2022/10/16 11:19:39;;;;;;;;;;;22.00;93.20;;;;;;4953194;28;19914;-74
2022/10/16 11:22:11;;;;;;;;;;;22.00;92.90;;;;;;4948288;28;19973;-74
2022/10/16 11:24:56;;;;;;;;;;;21.60;94.00;;;;;;4947201;28;19920;-73
2022/10/16 11:27:26;;;;;;;;;;;21.60;94.60;;;;;;4951851;28;19983;-74
2022/10/16 11:30:01;;;;;;;;;;;21.30;94.70;;;;;;4952701;28;20381;-72
2022/10/16 11:32:38;;;;;;;;;;;21.20;94.20;;;;;;4948073;28;20530;-74
2022/10/16 11:35:19;;;;;;;;;;;21.10;94.30;;;;;;4962129;28;20373;-73
2022/10/16 11:37:46;;;;;;;;;;;21.40;93.90;;;;;;4953140;28;20530;-75
2022/10/16 11:40:18;;;;;;;;;;;22.20;90.90;;;;;;4954268;28;19993;-74
2022/10/16 11:42:46;;;;;;;;;;;27.30;72.80;;;;;;4956906;28;19910;-75
2022/10/16 11:45:22;;;;;;;;;;;30.60;57.80;;;;;;4956986;28;19969;-73
2022/10/16 11:47:52;;;;;;;;;;;28.10;60.20;;;;;;4952870;28;19949;-73
2022/10/16 11:50:17;;;;;;;;;;;26.50;65.50;;;;;;4957097;28;19919;-76
2022/10/16 11:52:55;;;;;;;;;;;30.10;57.80;;;;;;4957243;28;19969;-75
2022/10/16 11:55:23;;;;;;;;;;;29.50;56.80;;;;;;4955087;28;20297;-78
2022/10/16 11:57:53;;;;;;;;;;;29.00;56.20;;;;;;4953966;28;20378;-77
2022/10/16 12:00:28;;;;;;;;;;;31.30;51.50;;;;;;4955534;28;19919;-76
2022/10/16 12:03:12;;;;;;;;;;;32.90;48.80;;;;;;4957258;28;20280;-76
2022/10/16 12:06:00;;;;;;;;;;;33.10;47.10;;;;;;4958869;28;19915;-76
2022/10/16 12:08:26;;;;;;;;;;;32.90;46.40;;;;;;4953886;28;19910;-76
2022/10/16 12:10:52;;;;;;;;;;;35.30;44.60;;;;;;4959672;28;19956;-78
2022/10/16 12:13:37;;;;;;;;;;;35.00;42.60;;;;;;4957411;28;20329;-75
2022/10/16 12:16:07;;;;;;;;;;;34.20;43.70;;;;;;4956710;28;19957;-77
2022/10/16 12:18:32;;;;;;;;;;;34.40;41.80;;;;;;4956751;28;19910;-77
2022/10/16 12:20:59;;;;;;;;;;;33.60;42.10;;;;;;4957202;28;20423;-76
2022/10/16 12:23:25;;;;;;;;;;;31.50;45.40;;;;;;4957739;28;19968;-75
2022/10/16 12:25:54;;;;;;;;;;;30.50;48.60;;;;;;4958008;28;19925;-76
2022/10/16 12:28:27;;;;;;;;;;;31.20;47.30;;;;;;4956590;28;19917;-75
2022/10/16 12:30:54;;;;;;;;;;;32.40;44.70;;;;;;4955016;28;19922;-76
2022/10/16 12:33:22;;;;;;;;;;;34.00;43.40;;;;;;4958926;28;20440;-75
2022/10/16 12:35:47;;;;;;;;;;;33.20;44.20;;;;;;4961105;28;19957;-75
2022/10/16 12:38:20;;;;;;;;;;;34.00;42.90;;;;;;4957179;28;20100;-77
2022/10/16 12:40:47;;;;;;;;;;;35.40;40.50;;;;;;4960152;28;20293;-76
2022/10/16 12:43:27;;;;;;;;;;;33.40;42.90;;;;;;4953262;28;19921;-75
2022/10/16 12:46:00;;;;;;;;;;;33.50;42.00;;;;;;4951572;28;20262;-74
2022/10/16 12:48:25;;;;;;;;;;;33.50;41.80;;;;;;4954756;28;19914;-74
2022/10/16 12:50:50;;;;;;;;;;;35.60;40.70;;;;;;4950693;28;19925;-78
2022/10/16 12:53:20;;;;;;;;;;;35.60;39.40;;;;;;4955261;28;20386;-76
2022/10/16 12:55:57;;;;;;;;;;;36.90;37.90;;;;;;4957619;28;20274;-78
2022/10/16 12:58:26;;;;;;;;;;;36.10;37.60;;;;;;4958506;28;19910;-76
2022/10/16 13:01:01;;;;;;;;;;;34.80;39.10;;;;;;4951870;28;19925;-76
2022/10/16 13:03:30;;;;;;;;;;;36.00;38.10;;;;;;4955462;28;19922;-76
2022/10/16 13:06:04;;;;;;;;;;;35.30;38.40;;;;;;4951152;28;19969;-81
2022/10/16 13:08:38;;;;;;;;;;;35.00;38.30;;;;;;4947990;28;19925;-75
2022/10/16 13:11:07;;;;;;;;;;;33.90;40.50;;;;;;4953481;28;20280;-76
2022/10/16 13:13:32;;;;;;;;;;;37.00;37.50;;;;;;4956825;28;19981;-77
2022/10/16 13:16:16;;;;;;;;;;;37.50;35.60;;;;;;4954456;28;19909;-78
2022/10/16 13:18:46;;;;;;;;;;;37.20;36.20;;;;;;4959397;28;20001;-77
2022/10/16 13:21:18;;;;;;;;;;;35.30;37.90;;;;;;4957300;28;19968;-78
2022/10/16 13:24:06;;;;;;;;;;;35.20;38.40;;;;;;4961132;28;19915;-77
2022/10/16 13:26:54;;;;;;;;;;;35.10;38.70;;;;;;4960680;28;19984;-78
2022/10/16 13:29:20;;;;;;;;;;;35.00;37.70;;;;;;4958920;28;19918;-76
2022/10/16 13:31:46;;;;;;;;;;;34.70;39.50;;;;;;4960557;28;20001;-77
2022/10/16 13:34:17;;;;;;;;;;;34.30;39.20;;;;;;4957687;28;20433;-76
2022/10/16 13:36:44;;;;;;;;;;;33.50;40.40;;;;;;4956651;28;19910;-76
2022/10/16 13:39:12;;;;;;;;;;;33.60;39.50;;;;;;4958492;28;19925;-79
2022/10/16 13:41:37;;;;;;;;;;;35.00;38.40;;;;;;4961051;28;20373;-75
2022/10/16 13:44:03;;;;;;;;;;;34.30;39.70;;;;;;4954202;28;19922;-78
2022/10/16 13:46:34;;;;;;;;;;;34.50;38.80;;;;;;4963397;28;19914;-77
2022/10/16 13:49:20;;;;;;;;;;;34.20;38.70;;;;;;4959110;28;19910;-79
2022/10/16 13:51:58;;;;;;;;;;;35.10;37.30;;;;;;4953982;28;19910;-77
2022/10/16 13:54:25;;;;;;;;;;;35.30;37.20;;;;;;4962058;28;20197;-76
2022/10/16 13:56:50;;;;;;;;;;;33.50;38.70;;;;;;4962080;28;20579;-75
2022/10/16 13:59:24;;;;;;;;;;;31.90;41.50;;;;;;4950532;28;19917;-75
2022/10/16 14:01:50;;;;;;;;;;;29.60;45.50;;;;;;4960485;28;19910;-80
2022/10/16 14:04:15;;;;;;;;;;;26.70;49.60;;;;;;4960408;28;19921;-77
2022/10/16 14:06:42;;;;;;;;;;;25.10;53.50;;;;;;4961007;28;19927;-81
2022/10/16 14:09:12;;;;;;;;;;;24.10;55.40;;;;;;4962480;28;19910;-75
2022/10/16 14:11:44;;;;;;;;;;;23.40;57.80;;;;;;4958532;28;19914;-75
2022/10/16 14:14:14;;;;;;;;;;;23.10;58.30;;;;;;4963693;28;19917;-73
2022/10/16 14:16:40;;;;;;;;;;;22.80;59.40;;;;;;4953265;28;19921;-73
2022/10/16 14:19:06;;;;;;;;;;;22.80;59.60;;;;;;4955487;28;20016;-75
2022/10/16 14:21:32;;;;;;;;;;;22.50;60.00;;;;;;4958122;28;19914;-73
2022/10/16 14:23:57;;;;;;;;;;;23.10;59.70;;;;;;4953850;28;19918;-73